AirNav   Advertisement
 
 1628 users online  

SN65 Lake Waltanna Airport
Goddard, Kansas, USA

GOING TO GODDARD?


FAA INFORMATION EFFECTIVE 20 JULY 2017

Location

FAA Identifier: SN65
Lat/Long: 37-35-38.7200N / 097-36-55.7800W
37-35.645333N / 097-36.929667W
37.5940889 / -97.6154944
(estimated)
Elevation: 1448 ft. / 441 m (estimated)
From city: 4 miles SW of GODDARD, KS
Time zone: UTC -5 (UTC -6 during Standard Time)
Zip code: 67052

Airport Operations

Airport use: Private use. Permission required prior to landing
Activation date: 04/1976
Control tower: no
ARTCC: KANSAS CITY CENTER
FSS: WICHITA FLIGHT SERVICE STATION
Attendance: UNATNDD
Wind indicator: yes
Segmented circle: no

Airport Communications

WX ASOS at ICT (9 nm E): PHONE 316-945-8022
WX AWOS-3 at EGT (20 nm SE): 118.875 (620-326-2470)
WX AWOS-3PT at BEC (20 nm E): 119.45 (316-515-7116)

Nearby radio navigation aids

VOR radial/distance  VOR name  Freq  Var
ICTr182/9.2WICHITA VORTAC113.8007E
HUTr139/28.5HUTCHINSON VOR/DME116.8009E
ANYr038/37.2ANTHONY VORTAC112.9007E

 
NDB name  Hdg/Dist  Freq  Var  ID
PICHE273/7.633204EIC .. -.-.
NEWTON204/32.528106EEWK . .-- -.-

Airport Services

Runway Information

Runway 17/35

Dimensions: 2100 x 100 ft. / 640 x 30 m
Surface: turf
RUNWAY 17  RUNWAY 35
Latitude: 37-35.818500N37-35.472333N
Longitude: 097-36.932833W097-36.926667W
Elevation: 1391.0 ft.1401.0 ft.
Traffic pattern: rightleft
Runway heading: 179 true359 true

Airport Ownership and Management from official FAA records

Ownership: Privately-owned
Owner: LK WALTANNA HOME OWNERS ASSOC
LAKE WALTANNA
GODDARD, KS 67052
Phone 316-794-2370
Manager: NICK MARDIS
17 LAKERIDGE DR
GODDARD, KS 67052
Phone 316-794-2370

Airport Operational Statistics

Aircraft based on the field: 7
Single engine airplanes: 7
    

Instrument Procedures

There are no published instrument procedures at SN65.

Some nearby airports with instrument procedures:

KICT - Wichita Dwight D Eisenhower National Airport (9 nm E)
KIAB - Mc Connell Air Force Base (17 nm E)
KCEA - Cessna Aircraft Field Airport (18 nm E)
KEGT - Wellington Municipal Airport (20 nm SE)
KBEC - Beech Factory Airport (20 nm E)
 
Loc | Ops | Rwys | IFR | FBO | Links
Com | Nav | Svcs | Stats | Notes

Kansas City Aviation Department
 
Area around SN65 (Lake Waltanna Airport)
 
Road maps at: MapQuest Bing Google
 
Aerial photo
No photo
 
Sectional chart

 
Airport distance calculator
Flying to Lake Waltanna Airport? Find the distance to fly.

From to SN65

Sunrise and sunset
Times for 26-Jul-2017
 Local
(UTC-5)
 Zulu
(UTC)
Morning civil twilight06:0111:01
Sunrise06:3011:30
Sunset20:4301:43
Evening civil twilight21:1302:13

Current date and time
Zulu (UTC)  26-Jul-2017 20:24:39
Local (UTC-5)  26-Jul-2017 15:24:39
 
METAR
KICT 
9nm E 
261953Z 20016G28KT 10SM SCT085 BKN110 BKN220 37/20 A2992 RMK AO2 PK WND 18028/1947 SLP112 CB DSNT SW-W-NW-N MOVG E SHRA DSNT SW-W-NW-N MOVG E T03720200
KIAB 
17nm E 
261958Z AUTO 20013G19KT 10SM FEW140 35/21 A2994 RMK AO2 SLP124 T03470206
KBEC 
20nm E 
261955Z AUTO 17010G16KT 10SM CLR 35/21 A2994 RMK AO2 T03460205
TAF
KICT 
9nm E 
261724Z 2617/2718 20016G24KT P6SM BKN250 FM270100 18011KT P6SM VCTS SCT080CB BKN150 FM270600 22011KT P6SM VCTS BKN150CB FM271100 35010KT P6SM BKN060 FM271300 36011KT P6SM BKN025
KIAB 
17nm E 
261800Z 2618/2724 18015KT 9999 SCT050 BKN100 BKN200 QNH2988INS BECMG 2620/2621 20015G25KT 9999 BKN050 OVC100 QNH2985INS BECMG 2622/2623 20015G25KT 8000 -SHRA BKN050 OVC100 QNH2985INS TEMPO 2623/2704 32025G35KT 3200 TSRA BKN020 OVC040CB BECMG 2707/2708 34006KT 9999 NSW OVC040 QNH2988INS BECMG 2714/2715 36010G15KT 9999 SCT025 SCT060 BKN150 QNH2990INS BECMG 2718/2719 01012G18KT 9999 SCT060 SCT150 QNH2989INS TX35/2621Z TN24/2712Z
NOTAMs
Click for the latest NOTAMs
NOTAMs are issued by the DoD/FAA and will open in a separate window not controlled by AirNav.

 

 
 

Would you like to see your business listed on this page?

 If your business provides an interesting product or service to pilots, flight crews, aircraft, or users of the Lake Waltanna Airport, you should consider listing it here.  To start the listing process, click on the button below
 
Add a business
 

Other Pages about Lake Waltanna Airport

Update a link
 
Copyright © AirNav, LLC. All rights reserved. Privacy Policy  Contact